Time;durP1;ratioP1;P1;durP2;ratioP2;P2;SDS_P1;SDS_P2;PMS_P1;PMS_P2;Temp;Humidity;BMP_temperature;BMP_pressure;BME280_temperature;BME280_humidity;BME280_pressure;Samples;Min_cycle;Max_cycle;Signal;HPM_P1;HPM_P2
2022/04/10 00:00:36;;;;;;;6.65;1.30;;;5.00;68.50;;;;;;4955436;29;20043;-79
2022/04/10 00:03:03;;;;;;;6.97;1.83;;;5.50;68.90;;;;;;4935718;29;20031;-78
2022/04/10 00:05:28;;;;;;;9.98;2.40;;;5.50;69.00;;;;;;4955117;29;20044;-79
2022/04/10 00:07:54;;;;;;;6.35;1.83;;;5.50;69.00;;;;;;4938201;29;20046;-78
2022/04/10 00:10:20;;;;;;;9.35;1.90;;;5.60;69.20;;;;;;4938605;29;20094;-78
2022/04/10 00:12:46;;;;;;;8.32;1.90;;;5.60;69.20;;;;;;4935040;29;20058;-79
2022/04/10 00:15:12;;;;;;;13.02;2.25;;;5.10;68.80;;;;;;4920194;29;20044;-79
2022/04/10 00:17:39;;;;;;;9.20;1.80;;;5.40;69.00;;;;;;4938119;29;20115;-79
2022/04/10 00:20:05;;;;;;;7.70;1.75;;;5.40;69.00;;;;;;4921790;29;20134;-79
2022/04/10 00:22:31;;;;;;;7.18;1.55;;;5.20;68.80;;;;;;4933377;29;20048;-78
2022/04/10 00:24:57;;;;;;;5.68;1.65;;;5.20;68.80;;;;;;4958454;29;20055;-80
2022/04/10 00:27:23;;;;;;;7.63;2.47;;;5.20;68.70;;;;;;4939552;29;20044;-79
2022/04/10 00:29:52;;;;;;;7.55;1.80;;;5.20;68.60;;;;;;4941525;29;20039;-80
2022/04/10 00:32:17;;;;;;;8.38;1.83;;;5.20;68.60;;;;;;4941479;29;20069;-79
2022/04/10 00:34:43;;;;;;;7.00;2.30;;;5.20;68.50;;;;;;4958182;29;20035;-80
2022/04/10 00:37:09;;;;;;;5.88;1.58;;;5.70;68.80;;;;;;4925428;29;20062;-79
2022/04/10 00:39:34;;;;;;;9.18;2.05;;;5.30;68.90;;;;;;4957622;29;20122;-79
2022/04/10 00:42:00;;;;;;;9.23;2.03;;;5.20;68.30;;;;;;4942056;29;20055;-80
2022/04/10 00:44:26;;;;;;;5.60;1.80;;;5.70;68.60;;;;;;4939185;29;20047;-79
2022/04/10 00:46:51;;;;;;;10.27;1.67;;;5.70;68.50;;;;;;4932509;29;20056;-79
2022/04/10 00:49:19;;;;;;;7.22;1.63;;;5.20;68.10;;;;;;4929253;29;20123;-79
2022/04/10 00:51:46;;;;;;;11.32;1.90;;;5.70;68.40;;;;;;4929014;29;20055;-80
2022/04/10 00:54:21;;;;;;;8.57;1.73;;;5.80;68.90;;;;;;4936113;29;20043;-79
2022/04/10 00:56:47;;;;;;;13.50;2.10;;;5.30;68.10;;;;;;4944822;29;20135;-80
2022/04/10 00:59:14;;;;;;;8.68;2.00;;;5.30;68.10;;;;;;4955182;29;20098;-79
2022/04/10 01:01:44;;;;;;;10.32;2.45;;;5.60;68.30;;;;;;4941082;29;20515;-79
2022/04/10 01:04:16;;;;;;;4.95;1.83;;;5.70;68.30;;;;;;4933745;29;20094;-79
2022/04/10 01:06:42;;;;;;;11.25;2.28;;;5.30;68.00;;;;;;4939164;29;20047;-79
2022/04/10 01:09:08;;;;;;;9.93;2.33;;;5.10;67.80;;;;;;4958282;29;20427;-79
2022/04/10 01:11:35;;;;;;;10.95;2.33;;;5.30;67.90;;;;;;4924839;29;20047;-78
2022/04/10 01:14:04;;;;;;;6.88;1.70;;;5.90;68.20;;;;;;4952310;29;20046;-78
2022/04/10 01:16:35;;;;;;;7.07;1.95;;;5.30;67.80;;;;;;4934342;29;20398;-79
2022/04/10 01:19:03;;;;;;;8.85;1.75;;;5.30;67.70;;;;;;4940305;29;20087;-79
2022/04/10 01:21:32;;;;;;;5.88;1.52;;;5.70;67.90;;;;;;4941051;29;20121;-79
2022/04/10 01:23:58;;;;;;;9.55;2.05;;;5.80;67.90;;;;;;4939652;29;20102;-80
2022/04/10 01:26:26;;;;;;;8.40;2.08;;;5.30;67.60;;;;;;4940510;29;20055;-79
2022/04/10 01:29:00;;;;;;;8.35;2.20;;;5.70;67.70;;;;;;4940199;29;20047;-80
2022/04/10 01:31:27;;;;;;;10.10;1.90;;;5.60;67.60;;;;;;4957884;29;20118;-79
2022/04/10 01:33:55;;;;;;;7.45;1.98;;;5.40;67.40;;;;;;4957294;28;20035;-79
2022/04/10 01:36:27;;;;;;;7.78;1.73;;;5.30;67.30;;;;;;4939344;29;20056;-78
2022/04/10 01:38:55;;;;;;;6.55;1.38;;;5.60;67.40;;;;;;4956336;29;20066;-78
2022/04/10 01:41:26;;;;;;;7.75;1.83;;;5.60;67.30;;;;;;4957611;29;20102;-78
2022/04/10 01:43:54;;;;;;;7.85;2.10;;;5.60;67.30;;;;;;4940048;29;20039;-78
2022/04/10 01:46:22;;;;;;;7.28;1.60;;;5.50;67.20;;;;;;4940675;29;20058;-78
2022/04/10 01:48:48;;;;;;;7.97;1.98;;;5.20;67.10;;;;;;4939945;29;20480;-78
2022/04/10 01:51:15;;;;;;;12.02;2.20;;;5.50;67.40;;;;;;4939841;29;20098;-79
2022/04/10 01:53:41;;;;;;;7.80;1.73;;;5.40;67.40;;;;;;4940048;29;20050;-79
2022/04/10 01:56:07;;;;;;;6.57;1.75;;;5.40;67.50;;;;;;4956621;29;20051;-79
2022/04/10 01:58:39;;;;;;;8.38;1.80;;;5.10;67.30;;;;;;4956951;29;20035;-79
2022/04/10 02:01:06;;;;;;;10.30;2.60;;;5.50;67.70;;;;;;4924140;29;20043;-79
2022/04/10 02:03:32;;;;;;;7.80;2.20;;;5.10;67.40;;;;;;4941331;29;20395;-78
2022/04/10 02:06:00;;;;;;;10.85;2.20;;;5.50;67.70;;;;;;4935549;29;20050;-78
2022/04/10 02:08:27;;;;;;;8.88;1.88;;;5.50;67.70;;;;;;4939361;29;20506;-78
2022/04/10 02:10:53;;;;;;;8.00;1.38;;;5.10;67.40;;;;;;4923909;29;20049;-78
2022/04/10 02:13:19;;;;;;;9.80;2.15;;;5.10;67.40;;;;;;4957137;29;20404;-78
2022/04/10 02:15:45;;;;;;;6.80;1.85;;;5.10;67.40;;;;;;4956131;29;20062;-80
2022/04/10 02:18:11;;;;;;;8.70;1.80;;;5.10;67.30;;;;;;4939278;29;20103;-79
2022/04/10 02:20:40;;;;;;;7.57;1.65;;;5.10;67.30;;;;;;4923194;29;20043;-78
2022/04/10 02:23:06;;;;;;;8.65;1.80;;;5.10;67.30;;;;;;4923721;29;20074;-79
2022/04/10 02:25:32;;;;;;;10.60;1.60;;;5.30;67.30;;;;;;4946872;29;20044;-78
2022/04/10 02:27:58;;;;;;;6.18;1.52;;;5.10;67.10;;;;;;4934342;29;20384;-79
2022/04/10 02:30:23;;;;;;;6.55;1.55;;;5.10;67.00;;;;;;4923980;29;20047;-78
2022/04/10 02:32:49;;;;;;;7.35;1.50;;;5.40;67.20;;;;;;4939675;29;20047;-79
2022/04/10 02:35:15;;;;;;;9.73;1.88;;;5.10;67.00;;;;;;4953129;29;20043;-78
2022/04/10 02:37:45;;;;;;;8.18;1.60;;;5.50;67.50;;;;;;4920513;29;20139;-78
2022/04/10 02:40:16;;;;;;;8.93;1.98;;;5.00;66.90;;;;;;4938706;29;20488;-78
2022/04/10 02:42:42;;;;;;;9.68;1.65;;;5.00;67.00;;;;;;4936052;29;20127;-78
2022/04/10 02:45:09;;;;;;;5.25;1.38;;;5.40;67.40;;;;;;4924746;29;20395;-79
2022/04/10 02:47:35;;;;;;;7.95;1.98;;;5.00;67.20;;;;;;4954229;28;20496;-78
2022/04/10 02:50:01;;;;;;;6.07;1.52;;;4.90;67.20;;;;;;4938189;29;20043;-80
2022/04/10 02:52:27;;;;;;;8.10;2.13;;;5.00;67.20;;;;;;4939207;29;20056;-79
2022/04/10 02:54:53;;;;;;;8.68;1.55;;;4.90;67.30;;;;;;4937260;29;20117;-79
2022/04/10 02:57:19;;;;;;;5.97;1.85;;;4.90;67.30;;;;;;4948762;29;20131;-79
2022/04/10 02:59:45;;;;;;;7.28;2.25;;;5.30;67.60;;;;;;4907837;29;20127;-79
2022/04/10 03:02:13;;;;;;;8.55;1.90;;;5.10;67.50;;;;;;4938670;29;20047;-79
2022/04/10 03:04:38;;;;;;;9.70;1.90;;;4.90;67.40;;;;;;4938830;29;20039;-78
2022/04/10 03:07:06;;;;;;;7.38;1.50;;;5.00;67.50;;;;;;4922456;29;20083;-79
2022/04/10 03:09:35;;;;;;;6.45;1.20;;;5.00;67.50;;;;;;4938603;29;20035;-79
2022/04/10 03:12:03;;;;;;;6.53;1.40;;;4.90;67.40;;;;;;4938603;29;20071;-79
2022/04/10 03:14:29;;;;;;;8.05;1.38;;;5.00;67.60;;;;;;4939024;29;20094;-79
2022/04/10 03:16:56;;;;;;;9.88;1.92;;;4.90;67.60;;;;;;4955008;28;20396;-80
2022/04/10 03:19:22;;;;;;;8.38;1.50;;;5.50;68.00;;;;;;4936477;29;20055;-80
2022/04/10 03:21:47;;;;;;;9.93;1.98;;;5.40;68.00;;;;;;4938069;29;20082;-80
2022/04/10 03:24:15;;;;;;;8.93;1.77;;;5.00;67.80;;;;;;4938843;29;20082;-80
2022/04/10 03:26:41;;;;;;;6.60;1.45;;;4.70;67.70;;;;;;4924013;29;20102;-80
2022/04/10 03:29:07;;;;;;;7.63;1.80;;;5.10;68.00;;;;;;4920094;29;20123;-79
2022/04/10 03:31:33;;;;;;;10.90;2.10;;;5.10;68.00;;;;;;4950368;29;20050;-79
2022/04/10 03:33:58;;;;;;;8.82;1.77;;;4.90;67.90;;;;;;4938453;29;20043;-80
2022/04/10 03:36:24;;;;;;;12.80;2.15;;;5.00;68.00;;;;;;4937893;29;20058;-79
2022/04/10 03:38:50;;;;;;;8.02;1.63;;;5.00;68.00;;;;;;4938095;29;20054;-79
2022/04/10 03:41:16;;;;;;;6.50;1.70;;;5.20;68.20;;;;;;4931377;29;20046;-80
2022/04/10 03:43:42;;;;;;;8.73;1.63;;;5.00;68.10;;;;;;4938419;29;20090;-80
2022/04/10 03:46:08;;;;;;;4.82;1.88;;;5.20;68.30;;;;;;4954141;29;20452;-80
2022/04/10 03:48:33;;;;;;;10.00;2.35;;;5.30;68.30;;;;;;4938323;29;20047;-80
2022/04/10 03:50:59;;;;;;;8.93;1.83;;;5.50;68.30;;;;;;4931656;29;20048;-79
2022/04/10 03:53:25;;;;;;;8.52;1.90;;;5.50;68.30;;;;;;4938088;29;20095;-79
2022/04/10 03:55:51;;;;;;;7.50;1.80;;;5.00;68.10;;;;;;4932970;29;20050;-78
2022/04/10 03:58:17;;;;;;;5.50;1.42;;;5.00;68.10;;;;;;4937050;29;20130;-78
2022/04/10 04:00:44;;;;;;;7.25;1.73;;;5.20;68.40;;;;;;4939478;29;20133;-78
2022/04/10 04:03:10;;;;;;;7.45;1.70;;;4.90;68.40;;;;;;4942292;29;20054;-78
2022/04/10 04:05:41;;;;;;;6.40;1.33;;;4.90;68.40;;;;;;4941651;29;20480;-78
2022/04/10 04:08:09;;;;;;;5.72;1.80;;;4.90;68.50;;;;;;4924537;28;20059;-78
2022/04/10 04:10:38;;;;;;;5.93;1.88;;;4.90;68.60;;;;;;4942367;29;20472;-79
2022/04/10 04:13:06;;;;;;;9.60;1.50;;;4.90;68.60;;;;;;4958390;29;20043;-79
2022/04/10 04:15:31;;;;;;;4.78;1.30;;;5.00;68.70;;;;;;4925603;29;20129;-78
2022/04/10 04:17:57;;;;;;;5.05;1.38;;;5.10;68.70;;;;;;4924497;29;20134;-78
2022/04/10 04:20:26;;;;;;;5.05;1.35;;;4.90;68.60;;;;;;4924582;29;20058;-79
2022/04/10 04:22:53;;;;;;;8.73;1.52;;;4.90;68.60;;;;;;4930804;29;20044;-78
2022/04/10 04:25:21;;;;;;;6.07;1.38;;;5.00;68.70;;;;;;4942101;29;20051;-79
2022/04/10 04:27:47;;;;;;;6.03;1.50;;;5.00;68.70;;;;;;4928328;29;20055;-78
2022/04/10 04:30:13;;;;;;;7.45;1.65;;;5.00;68.70;;;;;;4958569;29;20047;-79
2022/04/10 04:32:39;;;;;;;8.45;1.67;;;5.00;68.60;;;;;;4958115;29;20090;-80
2022/04/10 04:35:06;;;;;;;5.05;1.25;;;5.10;68.70;;;;;;4941365;29;20050;-79
2022/04/10 04:37:32;;;;;;;5.40;1.90;;;5.10;68.60;;;;;;4923979;29;20035;-79
2022/04/10 04:39:58;;;;;;;3.88;1.20;;;5.30;68.70;;;;;;4957271;29;20510;-79
2022/04/10 04:42:24;;;;;;;6.07;1.77;;;5.10;68.50;;;;;;4925225;29;20054;-79
2022/04/10 04:44:49;;;;;;;3.33;1.08;;;5.20;68.50;;;;;;4941492;29;20435;-79
2022/04/10 04:47:15;;;;;;;2.35;0.82;;;5.50;68.60;;;;;;4924715;29;20057;-79
2022/04/10 04:49:43;;;;;;;6.03;1.05;;;5.10;68.30;;;;;;4923868;29;20031;-80
2022/04/10 04:52:08;;;;;;;2.42;0.70;;;5.10;68.30;;;;;;4957915;29;20043;-79
2022/04/10 04:54:34;;;;;;;4.28;0.73;;;5.50;68.60;;;;;;4923586;29;20098;-80
2022/04/10 04:57:00;;;;;;;4.57;1.13;;;5.10;68.40;;;;;;4938066;29;20069;-79
2022/04/10 04:59:25;;;;;;;3.45;0.65;;;5.10;68.70;;;;;;4921835;29;20522;-80
2022/04/10 05:01:51;;;;;;;2.88;0.82;;;5.00;69.20;;;;;;4954847;29;20384;-80
2022/04/10 05:04:17;;;;;;;2.58;0.70;;;5.30;69.20;;;;;;4957648;29;20086;-80
2022/04/10 05:06:43;;;;;;;2.60;0.80;;;5.10;69.30;;;;;;4957989;29;20051;-80
2022/04/10 05:09:08;;;;;;;2.78;0.70;;;5.00;69.30;;;;;;4928351;29;20473;-80
2022/04/10 05:11:34;;;;;;;3.28;0.60;;;5.00;69.40;;;;;;4934029;29;20071;-79
2022/04/10 05:14:00;;;;;;;3.80;0.70;;;5.30;70.00;;;;;;4940879;29;20394;-79
2022/04/10 05:16:25;;;;;;;2.78;0.50;;;5.00;69.40;;;;;;4940864;29;20395;-79
2022/04/10 05:18:51;;;;;;;2.60;0.57;;;5.00;69.40;;;;;;4939987;29;20082;-80
2022/04/10 05:21:17;;;;;;;2.88;0.60;;;5.30;69.60;;;;;;4939640;29;20045;-79
2022/04/10 05:23:42;;;;;;;2.22;1.08;;;5.20;69.50;;;;;;4918904;29;20447;-79
2022/04/10 05:26:10;;;;;;;6.78;0.95;;;5.30;69.60;;;;;;4940051;29;20069;-79
2022/04/10 05:28:36;;;;;;;3.20;0.60;;;5.40;69.80;;;;;;4940232;29;20051;-79
2022/04/10 05:31:03;;;;;;;2.33;0.75;;;5.10;69.90;;;;;;4939079;29;20535;-79
2022/04/10 05:33:34;;;;;;;7.90;1.40;;;5.30;70.20;;;;;;4934754;29;20051;-79
2022/04/10 05:36:03;;;;;;;4.22;0.95;;;5.50;70.50;;;;;;4924701;29;20388;-79
2022/04/10 05:38:29;;;;;;;2.08;0.80;;;5.00;70.30;;;;;;4939529;29;20510;-78
2022/04/10 05:40:56;;;;;;;5.55;1.13;;;5.00;70.50;;;;;;4923887;29;20044;-79
2022/04/10 05:43:24;;;;;;;4.22;1.00;;;5.00;70.80;;;;;;4936687;29;20106;-79
2022/04/10 05:45:50;;;;;;;2.75;0.77;;;5.00;71.00;;;;;;4940772;29;20054;-79
2022/04/10 05:48:16;;;;;;;3.67;1.50;;;5.50;71.30;;;;;;4939746;29;20047;-79
2022/04/10 05:50:45;;;;;;;3.83;0.77;;;5.10;71.50;;;;;;4944019;29;20067;-79
2022/04/10 05:53:11;;;;;;;3.78;0.90;;;5.00;71.10;;;;;;4926730;29;20051;-79
2022/04/10 05:55:36;;;;;;;5.28;0.82;;;5.00;71.10;;;;;;4942492;29;20490;-79
2022/04/10 05:58:03;;;;;;;2.97;0.68;;;5.00;71.10;;;;;;4956728;29;20054;-79
2022/04/10 06:00:29;;;;;;;3.63;0.60;;;5.00;71.10;;;;;;4957003;29;20395;-79
2022/04/10 06:02:55;;;;;;;1.88;0.80;;;5.00;71.10;;;;;;4935545;29;20055;-79
2022/04/10 06:05:22;;;;;;;3.25;1.10;;;5.60;71.60;;;;;;4938078;29;20047;-79
2022/04/10 06:07:48;;;;;;;5.95;0.90;;;5.10;71.70;;;;;;4939449;29;20171;-79
2022/04/10 06:10:14;;;;;;;2.95;0.70;;;5.30;72.30;;;;;;4923171;29;20043;-79
2022/04/10 06:12:40;;;;;;;3.63;1.08;;;5.80;73.40;;;;;;4939435;29;20051;-79
2022/04/10 06:15:06;;;;;;;3.92;0.70;;;5.30;72.70;;;;;;4939622;29;20376;-79
2022/04/10 06:17:32;;;;;;;5.30;0.75;;;6.10;72.80;;;;;;4923794;29;20067;-79
2022/04/10 06:19:58;;;;;;;4.90;1.08;;;6.60;72.40;;;;;;4954578;29;20103;-79
2022/04/10 06:22:24;;;;;;;5.63;1.13;;;7.00;71.80;;;;;;4955649;28;20058;-79
2022/04/10 06:24:53;;;;;;;6.10;1.13;;;7.30;70.90;;;;;;4936976;29;20047;-79
2022/04/10 06:27:20;;;;;;;4.00;0.90;;;7.60;70.20;;;;;;4939459;29;20047;-79
2022/04/10 06:29:46;;;;;;;3.92;0.90;;;7.90;69.10;;;;;;4938162;29;20051;-79
2022/04/10 06:32:13;;;;;;;4.20;1.30;;;8.40;68.20;;;;;;4940015;29;20047;-78
2022/04/10 06:34:39;;;;;;;2.70;0.68;;;8.60;67.90;;;;;;4955614;29;20067;-79
2022/04/10 06:37:05;;;;;;;3.83;0.93;;;8.30;67.80;;;;;;4920483;29;20090;-79
2022/04/10 06:39:31;;;;;;;5.40;0.90;;;8.70;68.00;;;;;;4930828;29;20046;-79
2022/04/10 06:41:56;;;;;;;3.38;0.85;;;8.80;67.70;;;;;;4937966;29;20411;-79
2022/04/10 06:44:22;;;;;;;1.75;0.60;;;9.10;67.20;;;;;;4936447;29;20051;-79
2022/04/10 06:46:48;;;;;;;6.15;0.90;;;9.60;66.10;;;;;;4920921;29;20106;-80
2022/04/10 06:49:14;;;;;;;3.53;0.70;;;10.20;65.30;;;;;;4945730;29;20121;-80
2022/04/10 06:51:40;;;;;;;3.50;0.60;;;10.40;64.40;;;;;;4938243;29;20099;-80
2022/04/10 06:54:07;;;;;;;4.07;1.00;;;10.60;63.80;;;;;;4938558;29;20491;-79
2022/04/10 06:56:33;;;;;;;2.75;0.82;;;11.10;63.00;;;;;;4938721;29;20488;-78
2022/04/10 06:58:59;;;;;;;3.13;0.77;;;11.40;62.10;;;;;;4950756;29;20050;-81
2022/04/10 07:01:24;;;;;;;3.92;0.60;;;11.40;61.20;;;;;;4956065;29;20472;-79
2022/04/10 07:03:50;;;;;;;1.85;0.55;;;11.80;60.70;;;;;;4928603;29;20062;-78
2022/04/10 07:06:18;;;;;;;3.50;0.95;;;11.90;59.90;;;;;;4954219;29;20096;-79
2022/04/10 07:08:44;;;;;;;2.22;0.60;;;12.20;59.30;;;;;;4955929;29;20043;-79
2022/04/10 07:11:10;;;;;;;3.58;0.80;;;12.40;58.90;;;;;;4938534;29;20051;-79
2022/04/10 07:13:35;;;;;;;3.30;0.80;;;12.60;58.20;;;;;;4949634;29;20134;-79
2022/04/10 07:16:01;;;;;;;3.88;0.70;;;12.80;57.80;;;;;;4937408;29;20122;-79
2022/04/10 07:18:27;;;;;;;3.03;0.93;;;13.10;57.50;;;;;;4946608;29;20205;-79
2022/04/10 07:20:52;;;;;;;3.05;0.60;;;13.30;57.40;;;;;;4930616;29;20048;-80
2022/04/10 07:26:07;;;;;;;4.13;1.23;;;13.60;55.90;;;;;;4937384;28;20073;-79
2022/04/10 07:28:33;;;;;;;2.40;0.70;;;13.80;55.80;;;;;;4938349;29;20122;-79
2022/04/10 07:31:00;;;;;;;6.15;0.90;;;13.90;55.40;;;;;;4938442;29;20090;-80
2022/04/10 07:33:26;;;;;;;3.03;0.88;;;14.00;54.70;;;;;;4954480;28;20451;-80
2022/04/10 07:35:52;;;;;;;3.42;0.88;;;13.90;54.60;;;;;;4920450;29;20043;-79
2022/04/10 07:38:18;;;;;;;5.40;1.58;;;13.90;55.00;;;;;;4934272;29;20058;-80
2022/04/10 07:40:44;;;;;;;4.13;0.90;;;14.20;54.70;;;;;;4926202;29;20098;-80
2022/04/10 07:43:10;;;;;;;8.98;1.52;;;14.00;54.20;;;;;;4938059;29;20136;-79
2022/04/10 07:48:20;;;;;;;8.73;1.48;;;13.90;53.20;;;;;;4954734;29;20083;-79
2022/04/10 07:50:46;;;;;;;6.72;1.55;;;13.90;53.30;;;;;;4953556;29;20786;-79
2022/04/10 07:53:12;;;;;;;5.15;1.40;;;13.90;52.60;;;;;;4917748;29;20063;-78
2022/04/10 07:55:38;;;;;;;9.65;1.92;;;13.80;52.60;;;;;;4920482;29;20059;-79
2022/04/10 07:58:03;;;;;;;5.03;1.75;;;13.70;52.60;;;;;;4932228;29;20768;-80
2022/04/10 08:00:32;;;;;;;7.50;1.98;;;13.70;52.10;;;;;;4938011;29;20082;-79
2022/04/10 08:02:59;;;;;;;6.22;1.83;;;13.90;51.80;;;;;;4955074;29;20051;-80
2022/04/10 08:05:25;;;;;;;7.35;1.90;;;13.60;51.90;;;;;;4950167;29;20047;-78
2022/04/10 08:07:51;;;;;;;6.70;1.73;;;13.60;51.30;;;;;;4931697;29;20039;-80
2022/04/10 08:10:17;;;;;;;8.93;1.50;;;13.40;50.60;;;;;;4937118;29;20090;-80
2022/04/10 08:12:44;;;;;;;8.10;1.65;;;13.40;51.00;;;;;;4937581;29;20055;-80
2022/04/10 08:15:11;;;;;;;5.97;1.50;;;13.20;51.50;;;;;;4921810;29;20043;-80
2022/04/10 08:17:37;;;;;;;7.70;2.00;;;13.10;51.50;;;;;;4926232;29;20051;-79
2022/04/10 08:20:04;;;;;;;9.65;1.67;;;13.00;51.40;;;;;;4955090;29;20404;-80
2022/04/10 08:22:36;;;;;;;5.47;1.23;;;13.00;52.20;;;;;;4954953;29;20122;-79
2022/04/10 08:25:04;;;;;;;5.55;1.65;;;13.40;52.50;;;;;;4938318;29;20058;-79
2022/04/10 08:27:32;;;;;;;4.90;1.30;;;13.00;52.20;;;;;;4953629;29;20047;-80
2022/04/10 08:29:58;;;;;;;9.13;1.85;;;13.20;51.40;;;;;;4930234;29;20067;-78
2022/04/10 08:32:24;;;;;;;6.10;1.80;;;12.80;51.40;;;;;;4955136;28;20044;-79
2022/04/10 08:34:50;;;;;;;7.70;2.10;;;12.70;51.30;;;;;;4937567;29;20054;-80
2022/04/10 08:37:19;;;;;;;4.00;1.45;;;12.80;50.40;;;;;;4934894;29;20427;-79
2022/04/10 08:39:44;;;;;;;5.70;1.50;;;12.70;50.10;;;;;;4942212;29;20047;-78
2022/04/10 08:42:10;;;;;;;8.82;1.95;;;13.10;50.80;;;;;;4955460;29;20051;-79
2022/04/10 08:44:39;;;;;;;8.07;1.40;;;12.60;50.50;;;;;;4947569;29;20047;-78
2022/04/10 08:47:05;;;;;;;8.82;1.60;;;12.70;50.40;;;;;;4958520;29;20044;-78
2022/04/10 08:49:32;;;;;;;5.75;1.92;;;12.50;50.90;;;;;;4950469;29;20062;-78
2022/04/10 08:51:59;;;;;;;6.13;1.60;;;12.40;50.80;;;;;;4958751;29;20112;-80
2022/04/10 08:54:26;;;;;;;13.15;2.25;;;12.70;51.30;;;;;;4933802;29;20075;-80
2022/04/10 08:56:52;;;;;;;6.10;1.63;;;12.50;51.20;;;;;;4952792;29;20395;-79
2022/04/10 08:59:19;;;;;;;5.35;1.70;;;12.30;50.80;;;;;;4917766;29;20047;-79
2022/04/10 09:01:45;;;;;;;7.78;2.03;;;12.20;50.00;;;;;;4939388;29;20047;-79
2022/04/10 09:04:10;;;;;;;5.97;1.65;;;12.10;49.50;;;;;;4906721;29;20086;-79
2022/04/10 09:06:40;;;;;;;9.45;1.90;;;12.00;49.70;;;;;;4921964;29;20039;-79
2022/04/10 09:09:18;;;;;;;5.68;1.40;;;11.90;49.40;;;;;;4929779;29;20374;-77
2022/04/10 09:11:44;;;;;;;5.72;1.50;;;11.80;50.00;;;;;;4957172;29;20039;-77
2022/04/10 09:14:19;;;;;;;6.40;1.67;;;11.70;50.90;;;;;;4940920;29;20071;-78
2022/04/10 09:16:45;;;;;;;5.93;2.15;;;11.70;51.60;;;;;;4924847;29;20046;-77
2022/04/10 09:19:10;;;;;;;9.30;1.65;;;11.60;50.90;;;;;;4940618;29;20055;-77
2022/04/10 09:21:40;;;;;;;7.85;1.70;;;11.40;50.80;;;;;;4953963;28;20047;-77
2022/04/10 09:24:11;;;;;;;4.82;1.20;;;11.30;51.10;;;;;;4957204;29;20044;-76
2022/04/10 09:26:48;;;;;;;8.98;2.08;;;11.30;51.60;;;;;;4916465;29;20062;-77
2022/04/10 09:29:15;;;;;;;8.05;1.52;;;11.60;52.70;;;;;;4957459;29;20051;-77
2022/04/10 09:31:42;;;;;;;9.05;2.30;;;11.30;52.80;;;;;;4939826;29;20051;-77
2022/04/10 09:34:13;;;;;;;6.70;1.95;;;11.80;53.00;;;;;;4939086;29;20054;-77
2022/04/10 09:36:41;;;;;;;7.93;2.03;;;11.50;53.00;;;;;;4937942;29;20134;-77
2022/04/10 09:39:08;;;;;;;4.60;1.60;;;11.50;53.70;;;;;;4956846;29;20041;-77
2022/04/10 09:41:34;;;;;;;6.70;1.48;;;11.60;53.00;;;;;;4920896;29;20055;-78
2022/04/10 09:44:11;;;;;;;5.75;1.40;;;12.00;51.50;;;;;;4939580;29;20562;-77
2022/04/10 09:46:37;;;;;;;6.85;1.63;;;11.80;50.80;;;;;;4955805;29;20050;-79
2022/04/10 09:49:05;;;;;;;7.95;1.52;;;11.90;50.40;;;;;;4931507;29;20428;-78
2022/04/10 09:51:31;;;;;;;5.60;1.33;;;12.00;50.80;;;;;;4936259;29;20094;-78
2022/04/10 09:54:05;;;;;;;7.35;1.58;;;12.20;50.60;;;;;;4940204;29;20043;-80
2022/04/10 09:56:31;;;;;;;9.93;2.00;;;12.20;50.10;;;;;;4937805;29;20057;-78
2022/04/10 09:58:59;;;;;;;6.35;1.30;;;12.30;50.50;;;;;;4936574;29;20054;-77
2022/04/10 10:01:28;;;;;;;5.30;1.17;;;12.40;50.20;;;;;;4938195;29;20134;-77
2022/04/10 10:03:57;;;;;;;6.38;1.20;;;12.30;49.40;;;;;;4939966;29;20078;-78
2022/04/10 10:06:24;;;;;;;10.00;1.50;;;12.30;49.30;;;;;;4919919;29;20128;-77
2022/04/10 10:08:51;;;;;;;10.10;2.47;;;12.70;49.50;;;;;;4921536;29;20722;-77
2022/04/10 10:11:19;;;;;;;4.65;1.17;;;12.60;49.40;;;;;;4954739;29;20046;-77
2022/04/10 10:13:46;;;;;;;8.38;1.70;;;12.50;49.40;;;;;;4954332;29;20072;-77
2022/04/10 10:16:12;;;;;;;7.43;1.50;;;12.60;49.50;;;;;;4938788;29;20050;-77
2022/04/10 10:18:40;;;;;;;6.88;1.23;;;12.90;50.40;;;;;;4939165;29;20513;-77
2022/04/10 10:21:10;;;;;;;6.25;1.25;;;12.70;50.90;;;;;;4936592;29;20384;-77
2022/04/10 10:23:36;;;;;;;7.75;1.52;;;12.70;50.60;;;;;;4958231;29;20043;-77
2022/04/10 10:26:53;;;;;;;4.47;1.40;;;12.70;49.80;;;;;;4958352;29;20162;-78
2022/04/10 10:29:38;;;;;;;4.32;1.23;;;12.60;47.60;;;;;;4896283;29;20051;-77
2022/04/10 10:32:18;;;;;;;4.53;1.35;;;12.50;48.20;;;;;;4885450;29;20075;-77
2022/04/10 10:34:44;;;;;;;8.27;1.70;;;12.50;48.50;;;;;;4874011;29;20044;-76
2022/04/10 10:37:14;;;;;;;3.88;1.10;;;12.50;49.50;;;;;;4896080;29;20063;-77
2022/04/10 10:39:46;;;;;;;8.95;1.63;;;12.50;49.80;;;;;;4883220;29;20053;-77
2022/04/10 10:42:13;;;;;;;4.35;1.38;;;12.50;49.40;;;;;;4881119;29;20493;-77
2022/04/10 10:44:41;;;;;;;6.53;1.40;;;12.50;48.40;;;;;;4867063;29;20060;-78
2022/04/10 10:47:25;;;;;;;6.25;1.58;;;12.50;48.50;;;;;;4875516;29;20053;-78
2022/04/10 10:49:53;;;;;;;6.03;1.10;;;12.60;49.70;;;;;;4890224;29;20052;-77
2022/04/10 10:52:19;;;;;;;3.70;0.88;;;12.60;49.90;;;;;;4870741;29;20036;-77
2022/04/10 10:54:51;;;;;;;6.25;1.20;;;12.60;48.80;;;;;;4885894;29;20057;-77
2022/04/10 10:57:31;;;;;;;5.38;1.05;;;12.60;49.00;;;;;;4870241;29;20053;-79
2022/04/10 11:00:14;;;;;;;8.38;1.63;;;12.70;48.70;;;;;;4903530;29;20567;-79
2022/04/10 11:02:49;;;;;;;5.13;1.48;;;12.60;48.90;;;;;;4938217;29;20133;-78
2022/04/10 11:05:24;;;;;;;9.25;1.23;;;12.70;48.70;;;;;;4930058;29;20064;-78
2022/04/10 11:08:08;;;;;;;6.18;1.50;;;12.70;49.00;;;;;;4935505;29;20051;-77
2022/04/10 11:10:38;;;;;;;7.00;1.00;;;12.70;48.40;;;;;;4955598;29;20039;-79
2022/04/10 11:13:09;;;;;;;6.30;1.23;;;13.30;49.00;;;;;;4946219;29;20354;-78
2022/04/10 11:15:52;;;;;;;6.47;1.33;;;12.80;48.90;;;;;;4950440;29;20039;-77
2022/04/10 11:18:27;;;;;;;7.78;1.70;;;13.00;49.60;;;;;;4954546;29;20140;-78
2022/04/10 11:20:56;;;;;;;;;;;13.00;48.90;;;;;;4953664;29;20059;-77
2022/04/10 11:23:29;;;;;;;5.63;1.42;;;13.00;49.00;;;;;;4930198;29;19926;-78
2022/04/10 11:26:02;;;;;;;5.72;1.20;;;13.00;49.40;;;;;;4918882;29;20040;-78
2022/04/10 11:28:30;;;;;;;7.05;1.50;;;12.80;49.60;;;;;;4954387;29;20039;-77
2022/04/10 11:30:56;;;;;;;6.40;1.52;;;13.00;49.70;;;;;;4936813;29;20051;-77
2022/04/10 11:33:22;;;;;;;7.07;1.50;;;12.90;49.00;;;;;;4937885;29;20427;-77
2022/04/10 11:35:56;;;;;;;5.32;1.33;;;12.90;49.20;;;;;;4953651;29;20035;-77
2022/04/10 11:38:23;;;;;;;4.00;1.25;;;13.00;49.60;;;;;;4935319;29;20051;-78
2022/04/10 11:40:52;;;;;;;4.05;1.02;;;13.30;49.70;;;;;;4928105;29;20059;-77
2022/04/10 11:43:21;;;;;;;5.85;1.38;;;13.00;49.80;;;;;;4954344;29;20047;-77
2022/04/10 11:45:50;;;;;;;4.15;0.80;;;13.10;49.20;;;;;;4924074;29;20044;-77
2022/04/10 11:48:16;;;;;;;4.70;1.20;;;13.10;48.30;;;;;;4937012;29;20055;-78
2022/04/10 11:50:42;;;;;;;4.65;1.25;;;13.10;47.40;;;;;;4955250;29;20093;-79
2022/04/10 11:53:12;;;;;;;5.15;1.10;;;13.00;46.60;;;;;;4953032;29;20066;-79
2022/04/10 11:55:41;;;;;;;8.85;1.50;;;13.00;47.10;;;;;;4952155;29;20480;-79
2022/04/10 11:58:16;;;;;;;7.72;1.60;;;13.00;47.60;;;;;;4943991;29;20426;-80
2022/04/10 12:00:53;;;;;;;4.40;1.35;;;13.00;48.40;;;;;;4921490;29;20147;-81
2022/04/10 12:03:26;;;;;;;6.75;1.42;;;12.90;47.50;;;;;;4945571;29;20395;-79
2022/04/10 12:05:53;;;;;;;3.80;0.70;;;12.90;48.20;;;;;;4926396;28;20050;-77
2022/04/10 12:08:20;;;;;;;5.60;1.02;;;13.20;48.60;;;;;;4956670;28;20047;-78
2022/04/10 12:10:56;;;;;;;4.30;0.80;;;12.90;49.60;;;;;;4927496;29;20046;-79
2022/04/10 12:13:28;;;;;;;5.53;1.20;;;13.00;49.90;;;;;;4954765;29;20498;-78
2022/04/10 12:16:01;;;;;;;6.75;1.42;;;13.10;50.20;;;;;;4938016;29;20044;-77
2022/04/10 12:18:28;;;;;;;5.97;1.20;;;13.20;50.20;;;;;;4934687;28;20059;-77
2022/04/10 12:21:01;;;;;;;4.28;1.20;;;13.20;49.20;;;;;;4925398;29;20059;-78
2022/04/10 12:23:27;;;;;;;5.57;1.10;;;13.20;49.00;;;;;;4958595;29;20495;-80
2022/04/10 12:25:55;;;;;;;5.22;1.90;;;13.20;49.30;;;;;;4925815;29;20134;-78
2022/04/10 12:28:26;;;;;;;5.57;1.10;;;13.20;48.80;;;;;;4927126;29;20110;-78
2022/04/10 12:30:53;;;;;;;7.95;1.40;;;13.20;48.50;;;;;;4937911;29;20044;-78
2022/04/10 12:33:20;;;;;;;6.30;1.33;;;13.10;48.50;;;;;;4938457;29;20058;-79
2022/04/10 12:38:21;;;;;;;8.40;1.40;;;13.10;49.70;;;;;;5182833;23;20059;-79
2022/04/10 12:40:47;;;;;;;7.50;1.50;;;13.10;49.40;;;;;;4958817;28;20102;-81
2022/04/10 12:43:12;;;;;;;6.55;1.83;;;13.10;49.00;;;;;;4959858;28;20050;-78
2022/04/10 12:45:41;;;;;;;7.68;1.52;;;13.00;48.60;;;;;;4956435;28;20058;-80
2022/04/10 12:48:26;;;;;;;6.10;1.23;;;13.00;48.50;;;;;;4969252;28;20047;-75
2022/04/10 12:51:09;;;;;;;5.70;0.95;;;13.00;47.90;;;;;;4941603;28;20398;-78
2022/04/10 12:53:36;;;;;;;6.47;1.27;;;12.90;48.20;;;;;;4949419;28;20367;-79
2022/04/10 12:56:02;;;;;;;4.43;1.13;;;12.90;48.60;;;;;;4969911;28;20042;-78
2022/04/10 12:58:29;;;;;;;5.85;1.38;;;12.90;49.10;;;;;;4962782;28;20050;-79
2022/04/10 13:00:56;;;;;;;3.38;0.77;;;13.40;49.60;;;;;;4944631;28;20046;-79
2022/04/10 13:03:23;;;;;;;5.80;1.10;;;13.10;49.30;;;;;;4949553;28;20034;-80